createdAt,value
2022-11-05T00:00:44.530Z,5.50
2022-11-05T00:04:53.152Z,5.50
2022-11-05T00:10:55.401Z,5.50
2022-11-05T00:14:05.989Z,5.60
2022-11-05T00:15:33.395Z,5.60
2022-11-05T00:17:27.447Z,5.60
2022-11-05T00:24:12.343Z,5.60
2022-11-05T00:25:52.666Z,5.60
2022-11-05T00:27:27.450Z,5.60
2022-11-05T00:29:05.960Z,5.60
2022-11-05T00:31:10.284Z,5.60
2022-11-05T00:32:21.584Z,5.60
2022-11-05T00:34:21.307Z,5.70
2022-11-05T00:35:49.895Z,5.60
2022-11-05T00:36:51.913Z,5.70
2022-11-05T00:37:55.179Z,5.70
2022-11-05T00:38:57.178Z,5.70
2022-11-05T00:40:00.284Z,5.70
2022-11-05T00:41:03.449Z,5.70
2022-11-05T00:42:24.235Z,5.70
2022-11-05T00:43:56.873Z,5.70
2022-11-05T00:45:01.803Z,5.70
2022-11-05T00:46:04.907Z,5.70
2022-11-05T00:47:21.886Z,5.70
2022-11-05T00:48:44.203Z,5.70
2022-11-05T00:49:46.209Z,5.70
2022-11-05T00:50:49.228Z,5.70
2022-11-05T00:52:11.336Z,5.70
2022-11-05T00:53:14.817Z,5.70
2022-11-05T00:54:16.982Z,5.70
2022-11-05T00:55:20.002Z,5.70
2022-11-05T00:56:23.078Z,5.70
2022-11-05T00:57:25.177Z,5.70
2022-11-05T00:58:29.277Z,5.70
2022-11-05T00:59:31.363Z,5.70
2022-11-05T01:00:36.201Z,5.70
2022-11-05T01:01:38.350Z,5.70
2022-11-05T01:02:41.713Z,5.70
2022-11-05T01:03:51.465Z,5.70
2022-11-05T01:04:53.888Z,5.70
2022-11-05T01:05:59.237Z,5.70
2022-11-05T01:07:01.324Z,5.70
2022-11-05T01:08:04.535Z,5.70
2022-11-05T01:09:07.688Z,5.80
2022-11-05T01:10:10.003Z,5.80
2022-11-05T01:11:33.206Z,5.80
2022-11-05T01:12:35.674Z,5.80
2022-11-05T01:13:40.248Z,5.80
2022-11-05T01:14:42.514Z,5.80
2022-11-05T01:16:09.235Z,5.80
2022-11-05T01:17:48.696Z,5.70
2022-11-05T01:19:51.314Z,5.70
2022-11-05T01:21:21.579Z,5.70
2022-11-05T01:22:42.883Z,5.70
2022-11-05T01:24:27.394Z,5.70
2022-11-05T01:25:38.830Z,5.70
2022-11-05T01:27:07.288Z,5.60
2022-11-05T01:28:40.958Z,5.60
2022-11-05T01:29:59.053Z,5.50
2022-11-05T01:31:31.593Z,5.40
2022-11-05T01:35:02.877Z,5.40
2022-11-05T01:36:47.591Z,5.40
2022-11-05T01:37:52.611Z,5.40
2022-11-05T01:39:14.309Z,5.40
2022-11-05T01:41:02.581Z,5.40
2022-11-05T01:42:52.837Z,5.50
2022-11-05T01:44:20.629Z,5.50
2022-11-05T01:47:12.832Z,5.40
2022-11-05T01:48:33.632Z,5.40
2022-11-05T01:50:01.546Z,5.40
2022-11-05T01:51:19.114Z,5.40
2022-11-05T01:53:02.553Z,5.40
2022-11-05T01:56:12.089Z,5.50
2022-11-05T01:59:17.212Z,5.50
2022-11-05T02:00:35.799Z,5.50
2022-11-05T02:02:16.615Z,5.50
2022-11-05T02:03:19.312Z,5.50
2022-11-05T02:04:28.633Z,5.50
2022-11-05T02:05:31.587Z,5.50
2022-11-05T02:06:42.599Z,5.50
2022-11-05T02:07:46.744Z,5.50
2022-11-05T02:08:57.989Z,5.50
2022-11-05T02:10:03.956Z,5.60
2022-11-05T02:11:07.115Z,5.50
2022-11-05T02:12:10.869Z,5.50
2022-11-05T02:13:16.189Z,5.60
2022-11-05T02:14:19.443Z,5.60
2022-11-05T02:15:34.657Z,5.60
2022-11-05T02:16:41.446Z,5.60
2022-11-05T02:17:54.284Z,5.60
2022-11-05T02:19:03.429Z,5.60
2022-11-05T02:20:34.738Z,5.60
2022-11-05T02:22:14.470Z,5.60
2022-11-05T02:23:46.992Z,5.60
2022-11-05T02:25:01.500Z,5.50
2022-11-05T02:26:52.479Z,5.50
2022-11-05T02:28:20.808Z,5.50
2022-11-05T02:30:00.876Z,5.40
2022-11-05T02:31:12.742Z,5.40
2022-11-05T02:32:25.841Z,5.40
2022-11-05T02:33:37.223Z,5.30
2022-11-05T02:34:49.504Z,5.30
2022-11-05T02:36:11.785Z,5.30
2022-11-05T02:37:21.777Z,5.30
2022-11-05T02:38:44.223Z,5.30
2022-11-05T02:39:52.756Z,5.20
2022-11-05T02:41:06.111Z,5.20
2022-11-05T02:42:15.743Z,5.20
2022-11-05T02:43:27.450Z,5.20
2022-11-05T02:44:40.193Z,5.10
2022-11-05T02:45:50.225Z,5.10
2022-11-05T02:46:57.932Z,5.10
2022-11-05T02:48:08.975Z,5.00
2022-11-05T02:49:24.346Z,5.00
2022-11-05T02:50:33.721Z,5.00
2022-11-05T02:51:41.942Z,5.00
2022-11-05T02:52:51.605Z,5.00
2022-11-05T02:53:59.527Z,4.90
2022-11-05T02:55:12.191Z,5.00
2022-11-05T02:56:19.748Z,4.90
2022-11-05T02:57:22.740Z,4.90
2022-11-05T02:58:26.042Z,4.90
2022-11-05T02:59:28.120Z,4.90
2022-11-05T03:00:47.953Z,4.90
2022-11-05T03:01:51.749Z,5.00
2022-11-05T03:02:56.712Z,4.90
2022-11-05T03:04:00.729Z,5.00
2022-11-05T03:05:05.300Z,5.00
2022-11-05T03:06:28.149Z,5.00
2022-11-05T03:07:39.372Z,5.00
2022-11-05T03:08:56.938Z,5.00
2022-11-05T03:10:37.618Z,5.00
2022-11-05T03:11:51.282Z,5.00
2022-11-05T03:13:05.130Z,5.00
2022-11-05T03:14:16.421Z,5.00
2022-11-05T03:15:31.767Z,5.00
2022-11-05T03:16:39.508Z,5.10
2022-11-05T03:17:49.802Z,5.10
2022-11-05T03:19:01.723Z,5.20
2022-11-05T03:20:16.236Z,5.20
2022-11-05T03:21:23.356Z,5.20
2022-11-05T03:22:31.289Z,5.20
2022-11-05T03:23:40.259Z,5.20
2022-11-05T03:24:47.437Z,5.20
2022-11-05T03:25:54.620Z,5.30
2022-11-05T03:27:00.593Z,5.30
2022-11-05T03:28:09.061Z,5.30
2022-11-05T03:29:16.977Z,5.30
2022-11-05T03:30:20.670Z,5.30
2022-11-05T03:31:24.670Z,5.40
2022-11-05T03:32:31.289Z,5.40
2022-11-05T03:33:36.508Z,5.40
2022-11-05T03:34:45.592Z,5.40
2022-11-05T03:35:52.097Z,5.40
2022-11-05T03:36:58.135Z,5.40
2022-11-05T03:38:04.795Z,5.50
2022-11-05T03:39:10.965Z,5.50
2022-11-05T03:40:15.112Z,5.50
2022-11-05T03:41:20.140Z,5.50
2022-11-05T03:42:28.231Z,5.50
2022-11-05T03:43:34.767Z,5.50
2022-11-05T03:44:43.650Z,5.50
2022-11-05T03:45:52.140Z,5.60
2022-11-05T03:46:59.850Z,5.60
2022-11-05T03:48:03.799Z,5.60
2022-11-05T04:01:58.532Z,5.70
2022-11-05T04:03:00.998Z,5.70
2022-11-05T04:04:05.007Z,5.70
2022-11-05T04:05:08.313Z,5.70
2022-11-05T04:06:29.691Z,5.70
2022-11-05T04:07:50.376Z,5.70
2022-11-05T04:09:11.097Z,5.80
2022-11-05T04:10:31.786Z,5.80
2022-11-05T04:11:52.724Z,5.80
2022-11-05T04:13:13.725Z,5.80
2022-11-05T04:14:17.264Z,5.80
2022-11-05T04:15:19.520Z,5.90
2022-11-05T04:16:39.954Z,5.80
2022-11-05T04:17:44.655Z,5.90
2022-11-05T04:18:47.213Z,5.80
2022-11-05T04:20:07.726Z,5.90
2022-11-05T04:21:29.360Z,5.90
2022-11-05T04:22:54.734Z,5.90
2022-11-05T04:24:10.418Z,5.90
2022-11-05T04:25:15.942Z,6.00
2022-11-05T04:26:23.518Z,5.90
2022-11-05T04:27:25.985Z,5.90
2022-11-05T04:28:49.424Z,5.90
2022-11-05T04:30:10.154Z,6.00
2022-11-05T04:31:12.369Z,6.00
2022-11-05T04:32:14.634Z,6.00
2022-11-05T04:33:22.303Z,6.00
2022-11-05T04:34:24.641Z,6.00
2022-11-05T04:35:28.793Z,6.00
2022-11-05T04:36:31.373Z,6.00
2022-11-05T04:37:34.883Z,6.00
2022-11-05T04:38:38.292Z,6.00
2022-11-05T04:39:41.203Z,5.90
2022-11-05T04:40:44.986Z,5.90
2022-11-05T04:41:48.339Z,5.90
2022-11-05T04:42:51.569Z,6.00
2022-11-05T04:43:53.851Z,6.00
2022-11-05T04:44:57.121Z,6.00
2022-11-05T04:45:59.331Z,5.90
2022-11-05T04:47:02.653Z,5.90
2022-11-05T04:48:05.432Z,6.00
2022-11-05T04:49:10.171Z,6.00
2022-11-05T04:50:13.439Z,6.00
2022-11-05T04:51:15.559Z,6.00
2022-11-05T04:52:18.823Z,6.10
2022-11-05T04:53:20.990Z,6.00
2022-11-05T04:54:24.233Z,6.00
2022-11-05T04:55:26.960Z,6.00
2022-11-05T04:56:30.207Z,6.00
2022-11-05T04:57:32.468Z,6.00
2022-11-05T04:58:39.345Z,6.00
2022-11-05T04:59:41.518Z,6.00
2022-11-05T05:00:44.843Z,6.00
2022-11-05T05:01:51.162Z,6.00
2022-11-05T05:02:54.469Z,6.10
2022-11-05T05:03:56.675Z,6.10
2022-11-05T05:05:01.291Z,6.10
2022-11-05T05:06:04.092Z,6.10
2022-11-05T05:07:07.437Z,6.10
2022-11-05T05:08:09.640Z,6.10
2022-11-05T05:09:12.939Z,6.20
2022-11-05T05:10:15.316Z,6.20
2022-11-05T05:11:20.980Z,6.20
2022-11-05T05:12:23.714Z,6.20
2022-11-05T05:13:27.182Z,6.20
2022-11-05T05:14:29.353Z,6.20
2022-11-05T05:15:32.643Z,6.20
2022-11-05T05:16:34.822Z,6.20
2022-11-05T05:17:38.125Z,6.20
2022-11-05T05:18:45.930Z,6.20
2022-11-05T05:20:07.346Z,6.20
2022-11-05T05:21:29.485Z,6.20
2022-11-05T05:22:32.792Z,6.30
2022-11-05T05:23:34.907Z,6.30
2022-11-05T05:24:38.189Z,6.30
2022-11-05T05:25:40.540Z,6.30
2022-11-05T05:26:45.588Z,6.30
2022-11-05T05:27:47.719Z,6.30
2022-11-05T05:28:51.047Z,6.30
2022-11-05T05:29:53.192Z,6.30
2022-11-05T05:31:00.839Z,6.30
2022-11-05T05:32:04.172Z,6.30
2022-11-05T05:33:07.472Z,6.30
2022-11-05T05:34:12.248Z,6.30
2022-11-05T05:35:15.677Z,6.30
2022-11-05T05:36:23.216Z,6.30
2022-11-05T05:37:25.455Z,6.40
2022-11-05T05:38:29.396Z,6.40
2022-11-05T05:39:31.520Z,6.40
2022-11-05T05:40:34.927Z,6.40
2022-11-05T05:41:37.193Z,6.40
2022-11-05T05:42:43.442Z,6.40
2022-11-05T05:43:46.310Z,6.40
2022-11-05T05:44:49.676Z,6.40
2022-11-05T05:45:52.140Z,6.40
2022-11-05T05:46:55.830Z,6.40
2022-11-05T05:47:58.053Z,6.40
2022-11-05T05:49:01.492Z,6.40
2022-11-05T05:50:04.303Z,6.40
2022-11-05T05:51:09.506Z,6.40
2022-11-05T05:52:13.203Z,6.40
2022-11-05T05:53:16.667Z,6.40
2022-11-05T05:54:18.983Z,6.40
2022-11-05T05:55:22.407Z,6.40
2022-11-05T05:56:24.705Z,6.50
2022-11-05T05:57:27.937Z,6.40
2022-11-05T05:58:33.094Z,6.50
2022-11-05T05:59:36.411Z,6.50
2022-11-05T06:00:38.662Z,6.50
2022-11-05T06:01:42.278Z,6.50
2022-11-05T06:02:44.715Z,6.50
2022-11-05T06:03:48.506Z,6.50
2022-11-05T06:04:50.853Z,6.50
2022-11-05T06:05:54.199Z,6.50
2022-11-05T06:06:57.399Z,6.50
2022-11-05T06:08:01.112Z,6.50
2022-11-05T06:09:04.728Z,6.50
2022-11-05T06:10:07.683Z,6.50
2022-11-05T06:11:11.096Z,6.50
2022-11-05T06:12:13.358Z,6.50
2022-11-05T06:13:17.774Z,6.50
2022-11-05T06:14:21.059Z,6.50
2022-11-05T06:15:23.347Z,6.50
2022-11-05T06:16:27.759Z,6.50
2022-11-05T06:17:30.048Z,6.50
2022-11-05T06:18:34.766Z,6.50
2022-11-05T06:19:37.319Z,6.60
2022-11-05T06:20:40.858Z,6.60
2022-11-05T06:21:44.385Z,6.60
2022-11-05T07:23:52.037Z,7.20
2022-11-05T07:24:54.239Z,7.20
2022-11-05T07:25:57.725Z,7.30
2022-11-05T07:26:59.844Z,7.30
2022-11-05T07:28:03.580Z,7.30
2022-11-05T07:29:05.814Z,7.30
2022-11-05T07:30:10.610Z,7.40
2022-11-05T07:31:13.901Z,7.40
2022-11-05T07:32:16.148Z,7.40
2022-11-05T07:33:24.490Z,7.40
2022-11-05T07:34:26.828Z,7.50
2022-11-05T07:35:30.364Z,7.60
2022-11-05T07:36:33.624Z,7.60
2022-11-05T07:37:42.877Z,7.70
2022-11-05T07:38:46.130Z,7.70
2022-11-05T07:39:49.840Z,7.80
2022-11-05T07:40:53.218Z,7.80
2022-11-05T07:41:55.445Z,7.90
2022-11-05T07:43:00.396Z,7.90
2022-11-05T07:44:03.964Z,8.00
2022-11-05T07:45:07.817Z,8.00
2022-11-05T07:46:13.797Z,8.00
2022-11-05T07:47:16.337Z,8.00
2022-11-05T07:48:19.701Z,8.10
2022-11-05T07:49:23.749Z,8.10
2022-11-05T07:50:29.635Z,8.20
2022-11-05T07:51:31.971Z,8.30
2022-11-05T07:52:35.308Z,8.30
2022-11-05T07:53:41.082Z,8.40
2022-11-05T07:54:48.260Z,8.40
2022-11-05T07:55:52.621Z,8.40
2022-11-05T07:56:55.783Z,8.50
2022-11-05T07:57:58.429Z,8.50
2022-11-05T07:59:01.707Z,8.60
2022-11-05T08:00:04.372Z,8.70
2022-11-05T08:01:15.749Z,8.70
2022-11-05T08:02:18.117Z,8.60
2022-11-05T08:03:24.038Z,8.70
2022-11-05T08:04:26.573Z,8.80
2022-11-05T08:05:30.027Z,8.90
2022-11-05T08:06:32.225Z,8.90
2022-11-05T08:07:35.912Z,8.90
2022-11-05T08:08:38.281Z,8.90
2022-11-05T08:09:41.602Z,9.00
2022-11-05T08:10:43.890Z,9.10
2022-11-05T08:11:51.147Z,9.10
2022-11-05T08:12:55.892Z,9.10
2022-11-05T08:13:59.176Z,9.20
2022-11-05T08:15:01.448Z,9.30
2022-11-05T08:16:05.996Z,9.30
2022-11-05T08:17:08.326Z,9.40
2022-11-05T08:18:14.222Z,9.50
2022-11-05T08:19:16.488Z,9.50
2022-11-05T08:20:19.929Z,9.50
2022-11-05T08:21:22.210Z,9.60
2022-11-05T08:22:25.562Z,9.50
2022-11-05T08:23:29.131Z,9.50
2022-11-05T08:24:32.249Z,9.50
2022-11-05T08:25:35.299Z,9.50
2022-11-05T08:26:38.607Z,9.50
2022-11-05T08:27:42.261Z,9.40
2022-11-05T08:28:45.564Z,9.40
2022-11-05T08:29:47.818Z,9.30
2022-11-05T08:30:51.929Z,9.30
2022-11-05T08:31:54.191Z,9.20
2022-11-05T08:32:58.476Z,9.20
2022-11-05T08:34:02.673Z,9.20
2022-11-05T08:35:07.249Z,9.20
2022-11-05T08:36:09.450Z,9.20
2022-11-05T08:37:12.773Z,9.20
2022-11-05T08:38:16.689Z,9.20
2022-11-05T08:39:20.053Z,9.10
2022-11-05T08:40:22.315Z,9.10
2022-11-05T08:41:25.514Z,9.10
2022-11-05T08:42:27.688Z,9.10
2022-11-05T08:43:32.436Z,9.00
2022-11-05T08:44:34.651Z,9.00
2022-11-05T08:45:38.706Z,9.10
2022-11-05T08:46:41.854Z,9.10
2022-11-05T08:47:45.346Z,9.10
2022-11-05T08:48:47.593Z,9.10
2022-11-05T08:49:50.988Z,9.00
2022-11-05T08:50:53.297Z,9.00
2022-11-05T08:51:56.492Z,9.00
2022-11-05T08:52:59.089Z,9.00
2022-11-05T08:54:02.594Z,8.80
2022-11-05T08:55:05.498Z,8.80
2022-11-05T08:56:09.361Z,8.80
2022-11-05T08:57:11.651Z,8.80
2022-11-05T08:58:17.126Z,8.80
2022-11-05T08:59:22.147Z,8.80
2022-11-05T09:00:25.079Z,8.90
2022-11-05T09:01:28.537Z,8.90
2022-11-05T09:02:30.881Z,8.90
2022-11-05T09:03:34.170Z,8.90
2022-11-05T09:04:36.279Z,9.00
2022-11-05T09:05:41.021Z,9.10
2022-11-05T09:06:45.036Z,9.10
2022-11-05T09:07:47.217Z,9.10
2022-11-05T09:08:50.412Z,9.10
2022-11-05T09:09:52.493Z,9.20
2022-11-05T09:10:55.814Z,9.20
2022-11-05T09:12:11.632Z,9.20
2022-11-05T09:13:18.940Z,9.20
2022-11-05T09:14:27.058Z,9.30
2022-11-05T09:15:29.228Z,9.30
2022-11-05T09:16:34.375Z,9.30
2022-11-05T09:17:36.813Z,9.20
2022-11-05T09:18:39.976Z,9.20
2022-11-05T09:19:42.086Z,9.20
2022-11-05T09:20:45.798Z,9.20
2022-11-05T09:21:48.986Z,9.20
2022-11-05T09:22:51.778Z,9.20
2022-11-05T09:23:54.999Z,9.00
2022-11-05T09:24:57.248Z,9.00
2022-11-05T09:26:00.527Z,9.00
2022-11-05T09:27:02.573Z,9.00
2022-11-05T09:28:16.434Z,8.90
2022-11-05T09:29:20.209Z,9.00
2022-11-05T09:30:23.806Z,8.90
2022-11-05T09:31:27.154Z,9.00
2022-11-05T09:32:30.822Z,9.00
2022-11-05T09:33:34.459Z,8.90
2022-11-05T09:34:37.991Z,8.80
2022-11-05T09:35:40.929Z,8.80
2022-11-05T09:36:44.511Z,8.80
2022-11-05T09:37:46.795Z,8.90
2022-11-05T09:38:49.979Z,8.90
2022-11-05T09:39:52.987Z,8.90
2022-11-05T09:41:00.416Z,9.00
2022-11-05T09:42:06.632Z,9.00
2022-11-05T09:43:16.647Z,9.00
2022-11-05T09:44:22.617Z,9.00
2022-11-05T09:45:29.500Z,9.00
2022-11-05T09:46:41.907Z,9.00
2022-11-05T09:47:47.331Z,9.10
2022-11-05T09:48:54.731Z,9.10
2022-11-05T09:49:59.096Z,9.10
2022-11-05T09:51:02.448Z,9.20
2022-11-05T09:52:06.966Z,9.30
2022-11-05T09:53:14.581Z,9.30
2022-11-05T09:54:23.854Z,9.30
2022-11-05T09:55:31.005Z,9.30
2022-11-05T09:56:38.307Z,9.30
2022-11-05T09:57:45.941Z,9.20
2022-11-05T09:58:51.761Z,9.00
2022-11-05T09:59:57.194Z,9.00
2022-11-05T10:01:03.889Z,9.00
2022-11-05T10:02:15.684Z,8.90
2022-11-05T10:03:25.760Z,8.90
2022-11-05T10:04:32.181Z,8.90
2022-11-05T10:05:36.809Z,8.80
2022-11-05T10:06:47.096Z,8.80
2022-11-05T10:07:53.634Z,8.80
2022-11-05T10:09:03.883Z,8.70
2022-11-05T10:10:08.909Z,8.60
2022-11-05T10:11:18.138Z,8.70
2022-11-05T10:12:27.355Z,8.80
2022-11-05T10:13:36.664Z,8.80
2022-11-05T10:14:42.938Z,8.90
2022-11-05T10:15:55.124Z,9.00
2022-11-05T10:17:02.729Z,9.10
2022-11-05T10:18:13.070Z,9.20
2022-11-05T10:19:23.993Z,9.30
2022-11-05T10:20:33.455Z,9.30
2022-11-05T10:22:04.781Z,9.30
2022-11-05T10:23:09.944Z,9.40
2022-11-05T10:24:16.731Z,9.40
2022-11-05T10:25:20.694Z,9.50
2022-11-05T10:26:27.397Z,9.50
2022-11-05T10:27:31.957Z,9.50
2022-11-05T10:28:39.208Z,9.60
2022-11-05T10:29:45.107Z,9.60
2022-11-05T10:30:51.073Z,9.50
2022-11-05T10:32:07.562Z,9.30
2022-11-05T10:34:48.381Z,9.10
2022-11-05T10:35:55.747Z,9.10
2022-11-05T10:36:58.320Z,9.10
2022-11-05T10:38:03.655Z,9.10
2022-11-05T10:39:14.040Z,9.00
2022-11-05T10:40:27.258Z,9.10
2022-11-05T10:41:39.735Z,9.20
2022-11-05T10:42:57.129Z,9.30
2022-11-05T10:44:19.788Z,9.40
2022-11-05T10:45:33.809Z,9.50
2022-11-05T10:46:43.340Z,9.50
2022-11-05T10:47:58.223Z,9.50
2022-11-05T10:49:19.010Z,9.50
2022-11-05T10:50:26.692Z,9.60
2022-11-05T10:51:31.178Z,9.60
2022-11-05T10:52:36.263Z,9.70
2022-11-05T10:53:41.718Z,9.80
2022-11-05T10:54:44.668Z,10.00
2022-11-05T10:55:50.033Z,10.10
2022-11-05T10:56:53.628Z,10.10
2022-11-05T10:58:07.265Z,10.20
2022-11-05T10:59:23.026Z,10.30
2022-11-05T11:00:28.583Z,10.30
2022-11-05T11:01:32.891Z,10.20
2022-11-05T11:02:36.221Z,10.10
2022-11-05T11:03:47.962Z,9.90
2022-11-05T11:04:53.384Z,9.90
2022-11-05T11:06:01.561Z,9.80
2022-11-05T11:07:04.893Z,9.70
2022-11-05T11:08:24.958Z,9.70
2022-11-05T11:09:31.730Z,9.80
2022-11-05T11:10:40.651Z,9.80
2022-11-05T11:11:44.414Z,9.70
2022-11-05T11:12:48.755Z,9.60
2022-11-05T11:13:59.403Z,9.50
2022-11-05T11:15:04.660Z,9.60
2022-11-05T11:16:16.803Z,9.60
2022-11-05T11:17:27.928Z,9.60
2022-11-05T11:18:40.291Z,9.60
2022-11-05T11:19:44.020Z,9.60
2022-11-05T11:20:47.441Z,9.70
2022-11-05T11:22:15.326Z,9.80
2022-11-05T11:23:19.020Z,9.90
2022-11-05T11:24:32.466Z,10.00
2022-11-05T11:25:45.886Z,10.00
2022-11-05T11:26:47.999Z,10.00
2022-11-05T11:27:51.220Z,10.00
2022-11-05T11:28:57.915Z,9.90
2022-11-05T11:30:23.343Z,10.00
2022-11-05T11:31:31.280Z,10.10
2022-11-05T11:33:48.923Z,10.20
2022-11-05T11:34:54.865Z,10.30
2022-11-05T11:35:58.277Z,10.40
2022-11-05T11:37:06.606Z,10.40
2022-11-05T11:38:15.476Z,10.40
2022-11-05T11:39:22.196Z,10.40
2022-11-05T11:40:33.007Z,10.40
2022-11-05T11:41:38.557Z,10.40
2022-11-05T11:42:44.748Z,10.50
2022-11-05T11:43:47.976Z,10.50
2022-11-05T11:44:51.187Z,10.50
2022-11-05T11:46:00.674Z,10.50
2022-11-05T11:47:12.760Z,10.60
2022-11-05T11:48:19.316Z,10.50
2022-11-05T11:49:33.196Z,10.30
2022-11-05T11:50:41.014Z,10.20
2022-11-05T11:51:50.148Z,10.00
2022-11-05T11:52:52.724Z,9.90
2022-11-05T11:53:59.285Z,9.90
2022-11-05T11:55:19.621Z,9.90
2022-11-05T11:56:23.361Z,10.00
2022-11-05T11:57:28.182Z,10.00
2022-11-05T11:58:40.967Z,10.10
2022-11-05T12:00:11.758Z,10.20
2022-11-05T12:01:42.765Z,10.10
2022-11-05T12:03:05.623Z,10.20
2022-11-05T12:04:43.959Z,10.30
2022-11-05T12:05:53.278Z,10.30
2022-11-05T12:07:05.387Z,10.20
2022-11-05T12:08:45.878Z,10.20
2022-11-05T12:10:00.766Z,10.20
2022-11-05T12:11:09.391Z,10.20
2022-11-05T12:12:14.029Z,10.00
2022-11-05T12:13:38.592Z,10.00
2022-11-05T12:14:49.957Z,10.00
2022-11-05T12:15:54.047Z,10.00
2022-11-05T12:17:21.769Z,9.90
2022-11-05T12:18:36.444Z,9.90
2022-11-05T12:19:54.582Z,10.00
2022-11-05T12:21:08.011Z,10.00
2022-11-05T12:22:18.636Z,10.00
2022-11-05T12:23:33.489Z,9.90
2022-11-05T12:24:53.622Z,9.80
2022-11-05T12:26:04.314Z,9.80
2022-11-05T12:27:21.712Z,9.80
2022-11-05T12:28:57.746Z,9.80
2022-11-05T12:30:04.643Z,9.80
2022-11-05T12:31:20.235Z,9.80
2022-11-05T12:33:01.124Z,9.70
2022-11-05T12:34:20.180Z,9.50
2022-11-05T12:35:45.753Z,9.50
2022-11-05T12:37:05.694Z,9.40
2022-11-05T12:38:18.136Z,9.30
2022-11-05T12:39:39.018Z,9.30
2022-11-05T12:40:52.436Z,9.30
2022-11-05T12:42:01.059Z,9.30
2022-11-05T12:43:13.092Z,9.30
2022-11-05T12:44:28.425Z,9.30
2022-11-05T12:45:45.564Z,9.30
2022-11-05T12:47:00.848Z,9.40
2022-11-05T12:48:26.503Z,9.50
2022-11-05T12:49:57.649Z,9.50
2022-11-05T12:51:10.964Z,9.50
2022-11-05T12:52:41.449Z,9.50
2022-11-05T12:53:56.906Z,9.50
2022-11-05T12:55:05.205Z,9.60
2022-11-05T12:56:15.167Z,9.50
2022-11-05T12:57:18.846Z,9.40
2022-11-05T12:58:26.493Z,9.40
2022-11-05T12:59:35.513Z,9.40
2022-11-05T13:00:41.625Z,9.40
2022-11-05T13:01:48.889Z,9.50
2022-11-05T13:02:57.481Z,9.60
2022-11-05T13:04:06.610Z,9.60
2022-11-05T13:05:17.487Z,9.50
2022-11-05T13:06:24.359Z,9.40
2022-11-05T13:07:34.499Z,9.40
2022-11-05T13:08:43.729Z,9.30
2022-11-05T13:09:51.339Z,9.30
2022-11-05T13:10:58.312Z,9.20
2022-11-05T13:12:12.050Z,9.30
2022-11-05T13:13:20.287Z,9.20
2022-11-05T13:14:27.879Z,9.20
2022-11-05T13:15:36.126Z,9.10
2022-11-05T13:16:41.886Z,9.10
2022-11-05T13:17:52.116Z,9.10
2022-11-05T13:18:58.324Z,9.00
2022-11-05T13:20:11.834Z,9.10
2022-11-05T13:21:23.294Z,9.10
2022-11-05T13:22:35.905Z,9.10
2022-11-05T13:23:44.233Z,9.00
2022-11-05T13:24:50.515Z,9.00
2022-11-05T13:25:58.018Z,9.00
2022-11-05T13:27:10.680Z,9.00
2022-11-05T13:28:18.148Z,9.00
2022-11-05T13:29:26.446Z,9.00
2022-11-05T13:30:33.625Z,8.90
2022-11-05T13:31:38.776Z,8.90
2022-11-05T13:32:45.290Z,8.90
2022-11-05T13:33:50.546Z,9.00
2022-11-05T13:34:56.134Z,8.90
2022-11-05T13:36:21.953Z,8.90
2022-11-05T13:37:46.125Z,8.80
2022-11-05T13:39:01.311Z,8.90
2022-11-05T13:40:09.409Z,8.90
2022-11-05T13:41:24.393Z,8.90
2022-11-05T13:42:50.277Z,8.90
2022-11-05T13:44:18.614Z,8.90
2022-11-05T13:45:50.148Z,8.80
2022-11-05T13:47:14.286Z,8.80
2022-11-05T13:48:53.500Z,8.90
2022-11-05T13:50:28.681Z,8.90
2022-11-05T13:51:46.276Z,8.90
2022-11-05T13:53:10.896Z,9.00
2022-11-05T13:54:35.789Z,9.00
2022-11-05T13:55:57.171Z,9.00
2022-11-05T13:57:11.194Z,9.10
2022-11-05T13:58:38.545Z,9.10
2022-11-05T14:00:01.812Z,9.20
2022-11-05T14:01:11.729Z,9.20
2022-11-05T14:02:18.753Z,9.20
2022-11-05T14:03:22.841Z,9.20
2022-11-05T14:04:32.425Z,9.20
2022-11-05T14:05:39.363Z,9.20
2022-11-05T14:06:42.020Z,9.20
2022-11-05T14:07:47.218Z,9.20
2022-11-05T14:08:49.432Z,9.20
2022-11-05T14:09:58.969Z,9.20
2022-11-05T14:11:04.475Z,9.20
2022-11-05T14:12:18.433Z,9.10
2022-11-05T14:13:27.031Z,9.10
2022-11-05T14:14:42.203Z,9.00
2022-11-05T14:15:58.391Z,9.00
2022-11-05T14:17:16.308Z,9.10
2022-11-05T14:18:40.828Z,9.00
2022-11-05T14:20:09.833Z,9.00
2022-11-05T14:21:46.209Z,9.00
2022-11-05T14:22:48.213Z,9.00
2022-11-05T14:23:52.747Z,9.00
2022-11-05T14:24:56.232Z,9.00
2022-11-05T14:26:14.242Z,9.00
2022-11-05T14:27:53.896Z,9.00
2022-11-05T14:29:25.214Z,9.10
2022-11-05T14:30:45.859Z,9.10
2022-11-05T14:32:11.027Z,9.00
2022-11-05T14:33:31.093Z,9.00
2022-11-05T14:34:49.812Z,8.90
2022-11-05T14:35:52.681Z,8.90
2022-11-05T14:37:28.171Z,8.90
2022-11-05T14:38:31.290Z,8.90
2022-11-05T14:39:33.408Z,8.90
2022-11-05T14:40:42.242Z,8.80
2022-11-05T14:41:55.774Z,8.80
2022-11-05T14:43:02.435Z,8.80
2022-11-05T14:44:07.969Z,8.80
2022-11-05T14:45:27.043Z,8.80
2022-11-05T14:46:42.215Z,8.80
2022-11-05T14:47:53.304Z,8.80
2022-11-05T14:49:08.087Z,8.80
2022-11-05T14:50:20.370Z,8.80
2022-11-05T14:51:28.969Z,8.80
2022-11-05T14:52:33.216Z,8.90
2022-11-05T14:53:38.673Z,8.90
2022-11-05T14:54:43.970Z,9.00
2022-11-05T14:56:05.407Z,9.00
2022-11-05T14:57:11.275Z,9.00
2022-11-05T14:58:33.578Z,9.10
2022-11-05T15:00:01.032Z,9.00
2022-11-05T15:01:07.187Z,9.10
2022-11-05T15:02:13.465Z,9.10
2022-11-05T15:04:01.554Z,9.10
2022-11-05T15:05:46.459Z,9.10
2022-11-05T15:07:23.947Z,9.10
2022-11-05T15:08:35.836Z,9.10
2022-11-05T15:09:42.461Z,9.00
2022-11-05T15:10:45.375Z,9.00
2022-11-05T15:12:09.060Z,9.00
2022-11-05T15:13:29.690Z,9.00
2022-11-05T15:14:37.393Z,9.10
2022-11-05T15:15:43.103Z,9.00
2022-11-05T15:16:51.306Z,9.00
2022-11-05T15:18:01.995Z,9.00
2022-11-05T15:19:05.396Z,9.00
2022-11-05T15:20:11.324Z,8.90
2022-11-05T15:21:16.478Z,8.90
2022-11-05T15:22:30.456Z,8.90
2022-11-05T15:23:38.343Z,8.90
2022-11-05T15:24:43.476Z,8.90
2022-11-05T15:25:53.624Z,8.90
2022-11-05T15:27:04.723Z,8.90
2022-11-05T15:28:12.417Z,8.90
2022-11-05T15:29:19.140Z,8.80
2022-11-05T15:30:23.244Z,8.80
2022-11-05T15:31:32.362Z,8.80
2022-11-05T15:32:38.276Z,8.80
2022-11-05T15:33:43.281Z,8.80
2022-11-05T15:34:53.432Z,8.80
2022-11-05T15:35:56.352Z,8.80
2022-11-05T15:37:01.390Z,8.70
2022-11-05T15:38:19.169Z,8.70
2022-11-05T15:39:39.210Z,8.70
2022-11-05T15:40:44.807Z,8.70
2022-11-05T15:41:47.339Z,8.70
2022-11-05T15:43:19.403Z,8.60
2022-11-05T15:44:30.640Z,8.60
2022-11-05T15:45:33.791Z,8.60
2022-11-05T15:46:35.873Z,8.50
2022-11-05T15:47:46.436Z,8.50
2022-11-05T15:48:50.898Z,8.50
2022-11-05T15:49:56.571Z,8.50
2022-11-05T15:51:00.174Z,8.50
2022-11-05T15:52:02.324Z,8.50
2022-11-05T15:53:44.169Z,8.40
2022-11-05T15:54:40.985Z,8.40
2022-11-05T15:55:50.944Z,8.40
2022-11-05T15:58:25.503Z,8.40
2022-11-05T15:59:30.966Z,8.40
2022-11-05T16:00:36.241Z,8.50
2022-11-05T16:01:47.875Z,8.50
2022-11-05T16:02:55.315Z,8.50
2022-11-05T16:04:09.452Z,8.50
2022-11-05T16:05:15.326Z,8.50
2022-11-05T16:06:18.893Z,8.50
2022-11-05T16:07:21.583Z,8.50
2022-11-05T16:08:27.806Z,8.50
2022-11-05T16:09:32.140Z,8.50
2022-11-05T16:10:39.322Z,8.50
2022-11-05T16:11:41.484Z,8.60
2022-11-05T16:12:44.995Z,8.50
2022-11-05T16:13:49.481Z,8.60
2022-11-05T16:15:00.689Z,8.60
2022-11-05T16:16:06.360Z,8.60
2022-11-05T16:17:19.190Z,8.50
2022-11-05T16:18:24.508Z,8.60
2022-11-05T16:19:40.594Z,8.60
2022-11-05T16:21:01.069Z,8.60
2022-11-05T16:22:05.051Z,8.50
2022-11-05T16:23:25.578Z,8.50
2022-11-05T16:24:29.513Z,8.60
2022-11-05T16:25:40.424Z,8.50
2022-11-05T16:28:08.150Z,8.60
2022-11-05T16:29:17.497Z,8.50
2022-11-05T16:30:20.334Z,8.50
2022-11-05T16:31:25.736Z,8.50
2022-11-05T16:32:31.826Z,8.50
2022-11-05T16:33:39.557Z,8.50
2022-11-05T16:34:46.789Z,8.60
2022-11-05T16:35:49.905Z,8.50
2022-11-05T16:36:55.857Z,8.50
2022-11-05T16:38:02.032Z,8.50
2022-11-05T16:39:05.192Z,8.60
2022-11-05T16:40:14.060Z,8.50
2022-11-05T16:41:19.167Z,8.50
2022-11-05T16:42:37.595Z,8.60
2022-11-05T16:43:40.717Z,8.60
2022-11-05T16:44:44.035Z,8.60
2022-11-05T16:45:47.111Z,8.60
2022-11-05T16:46:49.745Z,8.50
2022-11-05T16:47:53.088Z,8.50
2022-11-05T16:48:55.761Z,8.50
2022-11-05T16:49:59.023Z,8.50
2022-11-05T16:51:02.075Z,8.50
2022-11-05T16:52:06.717Z,8.50
2022-11-05T16:53:09.007Z,8.50
2022-11-05T16:54:12.288Z,8.50
2022-11-05T16:55:15.402Z,8.60
2022-11-05T16:56:19.968Z,8.50
2022-11-05T16:57:26.882Z,8.60
2022-11-05T16:58:30.705Z,8.60
2022-11-05T16:59:33.639Z,8.60
2022-11-05T17:00:38.107Z,8.60
2022-11-05T17:01:42.843Z,8.60
2022-11-05T17:02:45.823Z,8.60
2022-11-05T17:03:50.785Z,8.50
2022-11-05T17:04:52.974Z,8.50
2022-11-05T17:05:56.169Z,8.50
2022-11-05T17:06:59.277Z,8.50
2022-11-05T17:08:03.381Z,8.50